createdAt,value
2017-05-27T00:02:03.849Z,10.20
2017-05-27T00:04:32.125Z,11.63
2017-05-27T00:07:00.455Z,11.02
2017-05-27T00:09:28.741Z,7.13
2017-05-27T00:11:57.938Z,8.33
2017-05-27T00:14:26.225Z,14.23
2017-05-27T00:16:54.522Z,15.38
2017-05-27T00:19:22.874Z,12.13
2017-05-27T00:21:51.153Z,7.95
2017-05-27T00:24:19.498Z,7.37
2017-05-27T00:26:47.011Z,7.82
2017-05-27T00:29:15.293Z,8.40
2017-05-27T00:31:42.938Z,7.52
2017-05-27T00:34:11.252Z,11.30
2017-05-27T00:36:38.775Z,12.62
2017-05-27T00:39:07.090Z,9.13
2017-05-27T00:41:35.375Z,7.05
2017-05-27T00:44:03.660Z,8.78
2017-05-27T00:46:31.207Z,10.45
2017-05-27T00:48:59.515Z,10.08
2017-05-27T00:51:27.811Z,16.17
2017-05-27T00:53:56.367Z,15.23
2017-05-27T00:56:24.737Z,8.92
2017-05-27T00:58:53.080Z,12.82
2017-05-27T01:01:21.377Z,9.68
2017-05-27T01:03:49.675Z,11.05
2017-05-27T01:06:17.207Z,8.63
2017-05-27T01:08:45.509Z,10.12
2017-05-27T01:11:13.794Z,8.32
2017-05-27T01:13:42.068Z,10.72
2017-05-27T01:16:10.349Z,9.75
2017-05-27T01:18:38.852Z,10.35
2017-05-27T01:21:07.144Z,11.45
2017-05-27T01:23:35.419Z,11.67
2017-05-27T01:26:03.708Z,12.02
2017-05-27T01:28:31.978Z,9.80
2017-05-27T01:31:00.274Z,14.72
2017-05-27T01:33:28.610Z,9.88
2017-05-27T01:35:56.880Z,12.23
2017-05-27T01:38:25.180Z,11.65
2017-05-27T01:40:53.473Z,10.83
2017-05-27T01:43:21.779Z,9.98
2017-05-27T01:45:50.055Z,8.55
2017-05-27T01:48:18.359Z,16.12
2017-05-27T01:50:46.654Z,12.60
2017-05-27T01:53:14.931Z,9.10
2017-05-27T01:55:43.213Z,8.05
2017-05-27T01:58:11.495Z,10.35
2017-05-27T02:00:39.763Z,15.58
2017-05-27T02:03:08.055Z,9.95
2017-05-27T02:05:36.347Z,12.52
2017-05-27T02:08:04.666Z,9.57
2017-05-27T02:10:32.974Z,16.22
2017-05-27T02:13:01.252Z,9.68
2017-05-27T02:15:29.542Z,10.92
2017-05-27T02:17:57.845Z,12.00
2017-05-27T02:20:26.127Z,11.13
2017-05-27T02:22:54.410Z,12.77
2017-05-27T02:25:22.717Z,8.85
2017-05-27T02:27:51.244Z,13.08
2017-05-27T02:30:19.535Z,13.65
2017-05-27T02:32:47.812Z,9.32
2017-05-27T02:35:16.104Z,11.90
2017-05-27T02:37:44.383Z,12.12
2017-05-27T02:40:12.674Z,11.98
2017-05-27T02:42:40.953Z,11.43
2017-05-27T02:45:08.447Z,9.93
2017-05-27T02:47:36.789Z,12.68
2017-05-27T02:50:05.076Z,8.93
2017-05-27T02:52:33.374Z,8.07
2017-05-27T02:55:01.661Z,11.05
2017-05-27T02:57:30.493Z,13.28
2017-05-27T02:59:58.798Z,9.38
2017-05-27T03:02:27.088Z,8.90
2017-05-27T03:04:54.631Z,9.87
2017-05-27T03:07:22.931Z,12.10
2017-05-27T03:09:51.222Z,6.92
2017-05-27T03:12:19.500Z,9.97
2017-05-27T03:14:47.788Z,11.57
2017-05-27T03:17:16.086Z,13.85
2017-05-27T03:19:44.384Z,9.47
2017-05-27T03:22:12.903Z,9.43
2017-05-27T03:24:41.189Z,9.82
2017-05-27T03:27:09.462Z,9.37
2017-05-27T03:29:37.758Z,7.40
2017-05-27T03:32:06.031Z,9.60
2017-05-27T03:34:34.309Z,9.38
2017-05-27T03:37:02.608Z,8.33
2017-05-27T03:39:30.879Z,8.97
2017-05-27T03:41:59.163Z,8.28
2017-05-27T03:44:27.455Z,10.03
2017-05-27T03:46:55.730Z,10.67
2017-05-27T03:49:24.010Z,13.42
2017-05-27T03:51:51.519Z,9.43
2017-05-27T03:54:19.786Z,9.32
2017-05-27T03:56:48.266Z,9.02
2017-05-27T03:59:16.541Z,6.72
2017-05-27T04:01:44.824Z,10.37
2017-05-27T04:04:13.627Z,8.82
2017-05-27T04:06:41.895Z,7.80
2017-05-27T04:09:10.164Z,8.33
2017-05-27T04:11:38.446Z,6.65
2017-05-27T04:14:06.735Z,9.38
2017-05-27T04:16:35.025Z,12.35
2017-05-27T04:19:03.304Z,8.83
2017-05-27T04:21:31.611Z,7.42
2017-05-27T04:23:59.133Z,12.38
2017-05-27T04:26:26.635Z,11.40
2017-05-27T04:28:54.163Z,6.62
2017-05-27T04:31:21.670Z,6.22
2017-05-27T04:33:49.961Z,10.22
2017-05-27T04:36:18.250Z,10.43
2017-05-27T04:38:46.542Z,9.42
2017-05-27T04:41:14.819Z,8.52
2017-05-27T04:43:43.107Z,6.97
2017-05-27T04:46:11.399Z,11.20
2017-05-27T04:48:39.676Z,10.73
2017-05-27T04:51:08.226Z,8.48
2017-05-27T04:53:36.538Z,8.93
2017-05-27T04:56:04.823Z,7.00
2017-05-27T04:58:32.338Z,6.90
2017-05-27T05:01:00.628Z,8.53
2017-05-27T05:03:28.909Z,7.03
2017-05-27T05:05:57.203Z,5.37
2017-05-27T05:08:25.499Z,6.08
2017-05-27T05:10:53.787Z,7.43
2017-05-27T05:13:22.067Z,10.42
2017-05-27T05:15:50.354Z,7.90
2017-05-27T05:18:18.670Z,7.18
2017-05-27T05:20:46.954Z,6.78
2017-05-27T05:23:15.250Z,7.37
2017-05-27T05:25:43.736Z,7.50
2017-05-27T05:28:11.259Z,10.65
2017-05-27T05:30:39.542Z,7.48
2017-05-27T05:33:07.823Z,6.68
2017-05-27T05:35:36.128Z,8.75
2017-05-27T05:38:04.440Z,6.38
2017-05-27T05:40:32.722Z,5.62
2017-05-27T05:43:01.009Z,5.70
2017-05-27T05:45:29.331Z,6.67
2017-05-27T05:47:57.611Z,6.58
2017-05-27T05:50:25.908Z,6.57
2017-05-27T05:52:54.179Z,5.52
2017-05-27T05:55:21.710Z,8.37
2017-05-27T05:57:49.994Z,6.65
2017-05-27T06:00:18.277Z,5.05
2017-05-27T06:02:46.576Z,4.40
2017-05-27T06:05:14.860Z,5.87
2017-05-27T06:07:43.172Z,5.67
2017-05-27T06:10:11.479Z,6.32
2017-05-27T06:12:39.758Z,4.88
2017-05-27T06:15:08.136Z,5.10
2017-05-27T06:17:36.499Z,4.85
2017-05-27T06:20:04.773Z,5.87
2017-05-27T06:22:33.046Z,10.72
2017-05-27T06:25:01.338Z,7.37
2017-05-27T06:27:29.610Z,4.62
2017-05-27T06:29:57.930Z,4.87
2017-05-27T06:32:26.206Z,7.40
2017-05-27T06:34:54.495Z,8.08
2017-05-27T06:37:22.766Z,4.65
2017-05-27T06:39:51.046Z,6.03
2017-05-27T06:42:19.338Z,4.98
2017-05-27T06:44:47.606Z,5.63
2017-05-27T06:47:15.891Z,6.12
2017-05-27T06:49:44.180Z,4.90
2017-05-27T06:52:12.484Z,5.83
2017-05-27T06:54:40.759Z,4.58
2017-05-27T06:57:09.053Z,5.88
2017-05-27T06:59:37.326Z,8.47
2017-05-27T07:02:05.617Z,6.97
2017-05-27T07:04:33.922Z,5.02
2017-05-27T07:07:02.230Z,6.28
2017-05-27T07:09:30.515Z,3.90
2017-05-27T07:11:58.787Z,7.38
2017-05-27T07:14:27.102Z,5.37
2017-05-27T07:16:55.399Z,3.83
2017-05-27T07:19:23.662Z,4.17
2017-05-27T07:21:52.006Z,4.63
2017-05-27T07:24:20.316Z,4.42
2017-05-27T07:26:48.598Z,5.30
2017-05-27T07:29:17.292Z,4.47
2017-05-27T07:31:45.621Z,4.82
2017-05-27T07:34:13.943Z,3.20
2017-05-27T07:36:42.235Z,4.00
2017-05-27T07:39:10.534Z,5.35
2017-05-27T07:41:39.227Z,3.85
2017-05-27T07:44:07.504Z,3.80
2017-05-27T07:46:35.826Z,3.33
2017-05-27T07:49:04.134Z,3.77
2017-05-27T07:51:32.427Z,9.80
2017-05-27T07:54:00.738Z,6.50
2017-05-27T07:56:29.050Z,7.78
2017-05-27T07:58:57.352Z,2.33
2017-05-27T08:01:25.631Z,3.37
2017-05-27T08:03:53.953Z,3.03
2017-05-27T08:06:22.239Z,4.65
2017-05-27T08:08:50.527Z,2.22
2017-05-27T08:11:18.813Z,3.00
2017-05-27T08:13:47.100Z,2.78
2017-05-27T08:16:15.751Z,2.97
2017-05-27T08:18:43.277Z,2.87
2017-05-27T08:21:11.558Z,2.47
2017-05-27T08:23:40.161Z,3.08
2017-05-27T08:26:08.442Z,3.43
2017-05-27T08:28:35.970Z,2.32
2017-05-27T08:31:04.284Z,4.97
2017-05-27T08:33:38.310Z,10.42
2017-05-27T08:36:06.596Z,4.03
2017-05-27T08:38:34.878Z,2.62
2017-05-27T08:41:03.179Z,3.97
2017-05-27T08:43:32.420Z,1.35
2017-05-27T08:46:00.702Z,3.05
2017-05-27T08:48:28.992Z,9.38
2017-05-27T08:50:57.354Z,3.37
2017-05-27T08:53:25.630Z,2.52
2017-05-27T08:55:53.905Z,2.08
2017-05-27T08:58:22.225Z,1.62
2017-05-27T09:00:50.512Z,3.47
2017-05-27T09:03:18.839Z,3.13
2017-05-27T09:05:47.131Z,1.38
2017-05-27T09:08:15.423Z,1.52
2017-05-27T09:10:43.712Z,1.12
2017-05-27T09:13:11.252Z,2.30
2017-05-27T09:15:39.542Z,1.55
2017-05-27T09:18:07.825Z,1.43
2017-05-27T09:20:36.121Z,1.87
2017-05-27T09:23:04.412Z,2.05
2017-05-27T09:25:32.683Z,2.08
2017-05-27T09:28:01.169Z,1.92
2017-05-27T09:30:29.577Z,2.18
2017-05-27T09:32:57.838Z,1.50
2017-05-27T09:35:26.134Z,2.32
2017-05-27T09:37:54.593Z,1.90
2017-05-27T09:40:22.890Z,3.20
2017-05-27T09:42:51.172Z,2.62
2017-05-27T09:45:19.461Z,5.22
2017-05-27T09:47:47.761Z,1.62
2017-05-27T09:50:16.099Z,2.12
2017-05-27T09:52:44.366Z,1.62
2017-05-27T09:55:12.658Z,2.13
2017-05-27T09:57:40.985Z,1.78
2017-05-27T10:00:09.338Z,1.58
2017-05-27T10:02:37.619Z,2.52
2017-05-27T10:05:05.922Z,2.40
2017-05-27T10:07:34.181Z,1.25
2017-05-27T10:10:02.453Z,1.87
2017-05-27T10:12:30.830Z,1.73
2017-05-27T10:14:59.106Z,6.98
2017-05-27T10:17:27.397Z,1.68
2017-05-27T10:19:55.659Z,3.57
2017-05-27T10:22:23.953Z,1.65
2017-05-27T10:24:51.498Z,1.67
2017-05-27T10:27:19.784Z,2.47
2017-05-27T10:29:48.063Z,5.65
2017-05-27T10:32:16.772Z,3.35
2017-05-27T10:34:45.273Z,1.37
2017-05-27T10:37:13.581Z,3.82
2017-05-27T10:39:41.880Z,3.28
2017-05-27T10:42:10.222Z,1.85
2017-05-27T10:44:38.505Z,2.67
2017-05-27T10:47:06.840Z,1.52
2017-05-27T10:49:35.136Z,1.92
2017-05-27T10:52:03.477Z,1.74
2017-05-27T10:54:31.780Z,1.14
2017-05-27T10:57:00.066Z,2.74
2017-05-27T10:59:28.343Z,2.14
2017-05-27T11:01:56.659Z,1.38
2017-05-27T11:04:24.945Z,3.48
2017-05-27T11:06:53.243Z,2.74
2017-05-27T11:09:21.539Z,3.52
2017-05-27T11:11:49.815Z,1.62
2017-05-27T11:14:18.082Z,2.18
2017-05-27T11:16:46.366Z,1.00
2017-05-27T11:19:14.654Z,2.56
2017-05-27T11:21:42.965Z,2.68
2017-05-27T11:24:11.283Z,2.50
2017-05-27T11:26:39.563Z,2.34
2017-05-27T11:29:07.842Z,2.02
2017-05-27T11:31:35.376Z,1.70
2017-05-27T11:34:03.640Z,1.06
2017-05-27T11:36:31.954Z,1.80
2017-05-27T11:39:00.248Z,4.38
2017-05-27T11:41:28.541Z,3.32
2017-05-27T11:43:56.836Z,2.16
2017-05-27T11:46:25.111Z,1.80
2017-05-27T11:48:53.385Z,1.82
2017-05-27T11:51:21.680Z,1.88
2017-05-27T11:53:49.954Z,1.82
2017-05-27T11:56:19.143Z,3.82
2017-05-27T11:58:47.425Z,1.40
2017-05-27T12:01:15.707Z,3.22
2017-05-27T12:03:43.975Z,2.14
2017-05-27T12:06:12.262Z,1.16
2017-05-27T12:08:40.538Z,1.82
2017-05-27T12:11:08.801Z,1.12
2017-05-27T12:13:37.095Z,2.08
2017-05-27T12:16:04.706Z,1.88
2017-05-27T12:18:32.974Z,2.36
2017-05-27T12:21:01.265Z,1.54
2017-05-27T12:23:29.539Z,2.68
2017-05-27T12:25:57.821Z,2.20
2017-05-27T12:28:26.107Z,2.70
2017-05-27T12:30:54.476Z,3.00
2017-05-27T12:33:22.760Z,2.10
2017-05-27T12:35:51.092Z,2.34
2017-05-27T12:38:19.401Z,3.56
2017-05-27T12:40:47.686Z,1.80
2017-05-27T12:43:15.966Z,1.44
2017-05-27T12:45:44.254Z,1.60
2017-05-27T12:48:12.562Z,2.18
2017-05-27T12:50:40.894Z,1.42
2017-05-27T12:53:09.187Z,2.72
2017-05-27T12:55:37.482Z,2.58
2017-05-27T12:58:06.008Z,1.62
2017-05-27T13:00:34.267Z,2.82
2017-05-27T13:03:02.585Z,1.30
2017-05-27T13:05:30.111Z,1.42
2017-05-27T13:07:59.061Z,1.80
2017-05-27T13:10:27.364Z,1.40
2017-05-27T13:12:55.670Z,2.32
2017-05-27T13:15:23.946Z,1.40
2017-05-27T13:17:52.245Z,1.94
2017-05-27T13:20:20.557Z,1.70
2017-05-27T13:22:48.877Z,1.72
2017-05-27T13:25:17.190Z,2.94
2017-05-27T13:27:45.488Z,1.74
2017-05-27T13:30:13.770Z,2.48
2017-05-27T13:32:42.087Z,2.85
2017-05-27T13:35:09.620Z,1.80
2017-05-27T13:37:37.945Z,2.82
2017-05-27T13:40:06.265Z,2.25
2017-05-27T13:42:34.581Z,2.30
2017-05-27T13:45:02.211Z,3.17
2017-05-27T13:47:30.503Z,2.38
2017-05-27T13:49:58.043Z,3.78
2017-05-27T13:52:26.330Z,1.22
2017-05-27T13:54:54.734Z,2.32
2017-05-27T13:57:23.044Z,2.17
2017-05-27T13:59:51.316Z,2.25
2017-05-27T14:02:19.632Z,3.97
2017-05-27T14:04:47.926Z,2.13
2017-05-27T14:07:16.202Z,3.57
2017-05-27T14:09:44.528Z,1.32
2017-05-27T14:12:12.842Z,1.98
2017-05-27T14:14:41.141Z,1.72
2017-05-27T14:17:09.485Z,1.45
2017-05-27T14:19:37.784Z,1.43
2017-05-27T14:22:06.083Z,3.43
2017-05-27T14:24:34.371Z,1.62
2017-05-27T14:27:02.659Z,1.10
2017-05-27T14:29:30.977Z,2.28
2017-05-27T14:31:59.263Z,3.48
2017-05-27T14:34:43.345Z,1.82
2017-05-27T14:37:32.595Z,2.03
2017-05-27T14:42:54.631Z,1.65
2017-05-27T14:45:30.825Z,1.70
2017-05-27T14:47:59.150Z,2.72
2017-05-27T14:50:27.437Z,2.48
2017-05-27T14:52:55.742Z,2.43
2017-05-27T14:55:24.033Z,2.23
2017-05-27T14:57:52.343Z,5.43
2017-05-27T15:00:20.743Z,1.72
2017-05-27T15:02:49.077Z,2.82
2017-05-27T15:05:17.400Z,4.30
2017-05-27T15:07:45.831Z,2.00
2017-05-27T15:10:14.119Z,6.83
2017-05-27T15:12:42.415Z,2.30
2017-05-27T15:15:10.764Z,2.02
2017-05-27T15:17:39.060Z,3.57
2017-05-27T15:20:07.367Z,1.88
2017-05-27T15:22:35.669Z,1.78
2017-05-27T15:25:03.965Z,2.20
2017-05-27T15:27:32.287Z,1.96
2017-05-27T15:30:00.590Z,1.72
2017-05-27T15:32:28.873Z,3.32
2017-05-27T15:34:57.286Z,3.16
2017-05-27T15:37:25.750Z,2.10
2017-05-27T15:39:54.016Z,2.20
2017-05-27T15:42:22.332Z,1.92
2017-05-27T15:44:50.615Z,2.74
2017-05-27T15:47:18.891Z,2.16
2017-05-27T15:49:47.288Z,2.70
2017-05-27T15:52:15.690Z,3.90
2017-05-27T15:54:43.983Z,2.48
2017-05-27T15:57:12.463Z,3.92
2017-05-27T15:59:40.798Z,2.30
2017-05-27T16:02:08.349Z,2.34
2017-05-27T16:04:36.695Z,3.54
2017-05-27T16:07:04.199Z,8.72
2017-05-27T16:09:37.444Z,2.20
2017-05-27T16:12:05.734Z,4.70
2017-05-27T16:14:42.869Z,2.32
2017-05-27T16:17:11.235Z,4.18
2017-05-27T16:19:39.513Z,2.32
2017-05-27T16:22:07.804Z,3.20
2017-05-27T16:24:36.124Z,3.14
2017-05-27T16:27:04.399Z,2.98
2017-05-27T16:29:32.711Z,3.44
2017-05-27T16:32:01.024Z,5.98
2017-05-27T16:34:29.320Z,2.80
2017-05-27T16:36:57.626Z,3.36
2017-05-27T16:39:25.970Z,6.28
2017-05-27T16:41:54.280Z,2.40
2017-05-27T16:44:22.658Z,6.06
2017-05-27T16:46:50.993Z,4.70
2017-05-27T16:49:19.316Z,3.18
2017-05-27T16:51:47.651Z,2.46
2017-05-27T16:54:15.964Z,5.02
2017-05-27T16:56:44.245Z,2.76
2017-05-27T16:59:12.541Z,3.44
2017-05-27T17:01:40.832Z,2.64
2017-05-27T17:04:09.129Z,5.66
2017-05-27T17:06:37.405Z,2.84
2017-05-27T17:09:05.961Z,4.80
2017-05-27T17:11:34.247Z,4.04
2017-05-27T17:14:02.529Z,2.34
2017-05-27T17:16:30.847Z,2.24
2017-05-27T17:18:59.154Z,3.52
2017-05-27T17:21:27.430Z,2.50
2017-05-27T17:23:55.706Z,4.80
2017-05-27T17:26:24.016Z,3.32
2017-05-27T17:28:52.303Z,3.28
2017-05-27T17:31:20.583Z,4.48
2017-05-27T17:33:48.884Z,7.60
2017-05-27T17:36:17.183Z,5.84
2017-05-27T17:38:45.474Z,3.92
2017-05-27T17:41:13.791Z,4.32
2017-05-27T17:43:42.086Z,4.50
2017-05-27T17:46:10.374Z,3.42
2017-05-27T17:48:38.677Z,4.14
2017-05-27T17:51:06.954Z,3.78
2017-05-27T17:53:35.252Z,3.94
2017-05-27T17:56:03.576Z,3.14
2017-05-27T17:58:31.872Z,4.50
2017-05-27T18:01:00.148Z,2.94
2017-05-27T18:03:28.481Z,9.08
2017-05-27T18:05:56.792Z,2.66
2017-05-27T18:08:25.112Z,3.00
2017-05-27T18:10:53.392Z,3.16
2017-05-27T18:13:21.731Z,5.88
2017-05-27T18:15:50.045Z,5.00
2017-05-27T18:18:18.348Z,3.15
2017-05-27T18:20:46.641Z,9.70
2017-05-27T18:23:15.022Z,4.28
2017-05-27T18:25:43.328Z,4.92
2017-05-27T18:28:11.610Z,3.55
2017-05-27T18:30:39.911Z,4.07
2017-05-27T18:33:08.240Z,7.87
2017-05-27T18:35:36.511Z,4.03
2017-05-27T18:38:04.816Z,6.08
2017-05-27T18:40:33.763Z,3.92
2017-05-27T18:43:02.076Z,3.78
2017-05-27T18:45:30.362Z,4.82
2017-05-27T18:47:58.673Z,3.35
2017-05-27T18:50:26.954Z,6.33
2017-05-27T18:52:55.595Z,3.98
2017-05-27T18:55:23.936Z,3.72
2017-05-27T18:57:52.246Z,4.53
2017-05-27T19:00:20.531Z,6.50
2017-05-27T19:02:48.859Z,5.68
2017-05-27T19:05:17.142Z,5.38
2017-05-27T19:07:45.408Z,5.37
2017-05-27T19:10:13.713Z,4.08
2017-05-27T19:12:42.026Z,5.23
2017-05-27T19:15:10.333Z,4.53
2017-05-27T19:17:38.732Z,6.58
2017-05-27T19:20:07.016Z,4.82
2017-05-27T19:22:35.287Z,5.55
2017-05-27T19:25:03.592Z,5.90
2017-05-27T19:27:31.846Z,5.87
2017-05-27T19:30:00.198Z,4.12
2017-05-27T19:32:28.499Z,10.07
2017-05-27T19:34:56.799Z,5.67
2017-05-27T19:37:25.076Z,3.85
2017-05-27T19:39:53.350Z,7.07
2017-05-27T19:42:21.659Z,5.42
2017-05-27T19:44:49.171Z,6.15
2017-05-27T19:47:16.664Z,4.52
2017-05-27T19:49:44.180Z,4.53
2017-05-27T19:52:12.503Z,5.22
2017-05-27T19:54:40.786Z,3.55
2017-05-27T19:57:09.051Z,6.95
2017-05-27T19:59:37.616Z,5.35
2017-05-27T20:02:05.969Z,8.33
2017-05-27T20:04:34.253Z,7.22
2017-05-27T20:07:02.569Z,6.73
2017-05-27T20:09:30.873Z,6.70
2017-05-27T20:11:59.144Z,6.30
2017-05-27T20:14:27.434Z,6.77
2017-05-27T20:16:55.770Z,4.70
2017-05-27T20:19:24.078Z,36.33
2017-05-27T20:21:52.364Z,7.73
2017-05-27T20:24:20.631Z,5.30
2017-05-27T20:26:49.055Z,7.27
2017-05-27T20:29:17.374Z,6.45
2017-05-27T20:31:45.685Z,5.93
2017-05-27T20:34:13.972Z,6.63
2017-05-27T20:36:42.278Z,5.15
2017-05-27T20:39:10.638Z,6.80
2017-05-27T20:41:38.963Z,6.83
2017-05-27T20:44:07.297Z,7.00
2017-05-27T20:46:35.610Z,12.13
2017-05-27T20:49:03.916Z,9.25
2017-05-27T20:51:32.207Z,7.82
2017-05-27T20:54:00.561Z,7.40
2017-05-27T20:56:28.099Z,6.00
2017-05-27T20:58:56.378Z,5.95
2017-05-27T21:01:24.658Z,7.18
2017-05-27T21:03:52.947Z,8.93
2017-05-27T21:06:21.296Z,7.43
2017-05-27T21:08:49.673Z,13.98
2017-05-27T21:11:17.986Z,11.37
2017-05-27T21:13:46.297Z,5.98
2017-05-27T21:16:14.619Z,6.45
2017-05-27T21:18:42.944Z,8.82
2017-05-27T21:21:12.180Z,8.33
2017-05-27T21:23:40.475Z,7.32
2017-05-27T21:26:08.841Z,6.82
2017-05-27T21:28:37.171Z,5.68
2017-05-27T21:31:05.473Z,7.38
2017-05-27T21:33:33.793Z,5.75
2017-05-27T21:36:02.102Z,9.92
2017-05-27T21:38:30.390Z,5.37
2017-05-27T21:40:58.730Z,5.88
2017-05-27T21:43:27.113Z,7.48
2017-05-27T21:45:55.749Z,8.83
2017-05-27T21:48:24.060Z,6.05
2017-05-27T21:50:52.339Z,5.63
2017-05-27T21:53:22.614Z,6.30
2017-05-27T21:55:50.980Z,6.43
2017-05-27T21:58:19.263Z,6.85
2017-05-27T22:00:47.585Z,6.57
2017-05-27T22:03:15.912Z,6.73
2017-05-27T22:05:44.261Z,16.55
2017-05-27T22:08:12.588Z,7.50
2017-05-27T22:10:40.164Z,8.75
2017-05-27T22:13:08.463Z,5.80
2017-05-27T22:15:36.767Z,18.12
2017-05-27T22:18:05.069Z,7.57
2017-05-27T22:20:33.351Z,11.97
2017-05-27T22:23:01.627Z,6.10
2017-05-27T22:25:29.914Z,7.80
2017-05-27T22:27:58.211Z,5.67
2017-05-27T22:30:26.515Z,7.73
2017-05-27T22:32:54.825Z,9.08
2017-05-27T22:35:23.126Z,7.77
2017-05-27T22:37:51.523Z,7.25
2017-05-27T22:40:19.791Z,9.57
2017-05-27T22:42:48.079Z,9.93
2017-05-27T22:45:16.359Z,7.75
2017-05-27T22:47:44.646Z,11.05
2017-05-27T22:50:12.945Z,8.75
2017-05-27T22:52:41.257Z,6.73
2017-05-27T22:55:09.564Z,7.20
2017-05-27T22:57:37.886Z,7.42
2017-05-27T23:00:06.179Z,4.90
2017-05-27T23:02:34.571Z,5.33
2017-05-27T23:05:02.855Z,7.45
2017-05-27T23:07:31.177Z,14.68
2017-05-27T23:09:59.450Z,6.45
2017-05-27T23:12:27.728Z,6.65
2017-05-27T23:14:56.040Z,5.45
2017-05-27T23:17:24.351Z,7.92
2017-05-27T23:19:52.651Z,9.73
2017-05-27T23:22:20.924Z,7.70
2017-05-27T23:24:49.439Z,5.82
2017-05-27T23:27:17.723Z,6.08
2017-05-27T23:29:46.003Z,5.95
2017-05-27T23:32:14.415Z,18.22
2017-05-27T23:34:41.952Z,5.38
2017-05-27T23:37:09.473Z,5.73
2017-05-27T23:39:37.765Z,7.43
2017-05-27T23:42:06.075Z,9.60
2017-05-27T23:44:34.406Z,10.47
2017-05-27T23:47:02.709Z,5.32
2017-05-27T23:49:30.992Z,5.00
2017-05-27T23:51:59.280Z,7.23
2017-05-27T23:54:27.566Z,6.58
2017-05-27T23:56:55.848Z,7.40
2017-05-27T23:59:24.131Z,6.15
